Terminal Aerodrome Forecast
Issued by NWS Brownsville, TX

Home | Current Version | Previous Version | Text Only | Print | Product List | Glossary On
Versions: 1 2 3 4 5 6 7 8 9 10 11 12 13 14 15 16 17 18
000
FTUS44 KBRO 271720
TAFMFE
TAF
KMFE 271720Z 2718/2818 15014G21KT P6SM FEW035 SCT045
     FM280400 13009KT P6SM OVC019
     FM281500 15015G21KT P6SM BKN050=

USA.gov is the U.S. government's official web portal to all federal, state and local government web resources and services.